MSC Clorinda — 3FDW7 — position and weather

sailwx.info

Track history (hours):
 
Tides and Currents Weather Stations Pressure Air Temp Water Temp Dewpoint Dewpoint Depression Visibility Wind Speed Wind Dir Waves Ship Positions

MSC Clorinda

Last reported at 2017-May-27 07:47 UTC. Time now 2017-May-28 01:05 UTC.
Position N 23°50' E 118°21'.

Length 366 m; draft 13.6 m.

Type: Ship (hazmat cat A). MMSI: 373233000.

Date/timePositionNaut miles runAvg speedWind from/ knotsBaromVisibWave heightAir tempDewpointWater temp
2017-May-27 07:47N 23°50' E 118°21'821.2
2017-May-27 07:26N 23°55' E 118°27'38320.0
2017-May-26 12:15N 29°00' E 122°44'8418.9
2017-May-26 07:48N 30°24' E 122°50'722.0
2017-May-26 07:30N 30°28' E 122°44'1121.8
2017-May-26 07:00N 30°30' E 122°32'918.0
2017-May-26 06:30N 30°32' E 122°21'17 1.8
2017-May-25 21:02N 30°38' E 122°03'0 0.0
2017-May-25 20:59N 30°38' E 122°03'0 0.0
2017-May-25 19:20N 30°38' E 122°03'0 0.0
2017-May-25 18:41N 30°38' E 122°03'0 0.0
2017-May-25 18:11N 30°38' E 122°03'0 0.0
2017-May-25 12:05N 30°38' E 122°03'0 0.0
2017-May-25 11:59N 30°38' E 122°03'0 0.0
2017-May-25 11:26N 30°38' E 122°03'0 0.0
2017-May-25 05:59N 30°38' E 122°03'0 0.2
2017-May-25 05:30N 30°38' E 122°03'3 6.4
2017-May-25 05:00N 30°36' E 122°06'2111.5
2017-May-25 03:08N 30°31' E 122°30'317.6
2017-May-25 02:58N 30°30' E 122°33'  
2017-May-19 10:21N 35°16' E 124°44'515.2
2017-May-19 10:00N 35°22' E 124°42'815.3
2017-May-19 09:30N 35°29' E 124°40'815.5
2017-May-19 08:59N 35°37' E 124°37'17915.6
2017-May-18 21:34N 37°60' E 122°24'419.8
2017-May-18 21:22N 38°02' E 122°20'719.7
2017-May-18 21:00N 38°05' E 122°11'1119.7
2017-May-18 20:25N 38°10' E 121°58'819.7
2017-May-18 20:00N 38°13' E 121°49'1419.5
2017-May-18 19:17N 38°18' E 121°32'5016.4
2017-May-18 16:14N 38°36' E 120°32'  
Track history (hours):
 
Tides and Currents Weather Stations Pressure Air Temp Water Temp Dewpoint Dewpoint Depression Visibility Wind Speed Wind Dir Waves Ship Positions

MSC Clorinda

Last reported at 2017-May-27 07:47 UTC. Time now 2017-May-28 01:05 UTC.
Position N 23°50' E 118°21'.

Length 366 m; draft 13.6 m.

Type: Ship (hazmat cat A). MMSI: 373233000.

Date/timePositionNaut miles runAvg speedWind from/ knotsBaromVisibWave heightAir tempDewpointWater temp
2017-May-27 07:47N 23°50' E 118°21'821.2
2017-May-27 07:26N 23°55' E 118°27'38320.0
2017-May-26 12:15N 29°00' E 122°44'8418.9
2017-May-26 07:48N 30°24' E 122°50'722.0
2017-May-26 07:30N 30°28' E 122°44'1121.8
2017-May-26 07:00N 30°30' E 122°32'918.0
2017-May-26 06:30N 30°32' E 122°21'17 1.8
2017-May-25 21:02N 30°38' E 122°03'0 0.0
2017-May-25 20:59N 30°38' E 122°03'0 0.0
2017-May-25 19:20N 30°38' E 122°03'0 0.0
2017-May-25 18:41N 30°38' E 122°03'0 0.0
2017-May-25 18:11N 30°38' E 122°03'0 0.0
2017-May-25 12:05N 30°38' E 122°03'0 0.0
2017-May-25 11:59N 30°38' E 122°03'0 0.0
2017-May-25 11:26N 30°38' E 122°03'0 0.0
2017-May-25 05:59N 30°38' E 122°03'0 0.2
2017-May-25 05:30N 30°38' E 122°03'3 6.4
2017-May-25 05:00N 30°36' E 122°06'2111.5
2017-May-25 03:08N 30°31' E 122°30'317.6
2017-May-25 02:58N 30°30' E 122°33'  
2017-May-19 10:21N 35°16' E 124°44'515.2
2017-May-19 10:00N 35°22' E 124°42'815.3
2017-May-19 09:30N 35°29' E 124°40'815.5
2017-May-19 08:59N 35°37' E 124°37'17915.6
2017-May-18 21:34N 37°60' E 122°24'419.8
2017-May-18 21:22N 38°02' E 122°20'719.7
2017-May-18 21:00N 38°05' E 122°11'1119.7
2017-May-18 20:25N 38°10' E 121°58'819.7
2017-May-18 20:00N 38°13' E 121°49'1419.5
2017-May-18 19:17N 38°18' E 121°32'5016.4
2017-May-18 16:14N 38°36' E 120°32'  

Dump ship's entire track history